createdAt,value
2018-11-25T00:01:58.565Z,8.10
2018-11-25T00:04:26.581Z,8.10
2018-11-25T00:06:54.611Z,8.10
2018-11-25T00:09:22.629Z,8.20
2018-11-25T00:11:50.650Z,8.20
2018-11-25T00:14:18.656Z,8.20
2018-11-25T00:16:46.685Z,8.20
2018-11-25T00:19:14.693Z,8.20
2018-11-25T00:21:42.709Z,8.20
2018-11-25T00:24:10.732Z,8.30
2018-11-25T00:26:38.763Z,8.20
2018-11-25T00:29:06.484Z,8.20
2018-11-25T00:31:34.509Z,8.20
2018-11-25T00:34:02.524Z,8.10
2018-11-25T00:36:30.548Z,8.10
2018-11-25T00:38:58.558Z,8.10
2018-11-25T00:41:26.586Z,8.10
2018-11-25T00:43:54.601Z,8.10
2018-11-25T00:46:22.624Z,8.10
2018-11-25T00:48:50.641Z,8.10
2018-11-25T00:51:18.670Z,8.10
2018-11-25T00:53:46.701Z,8.00
2018-11-25T00:56:14.717Z,8.00
2018-11-25T00:58:42.753Z,8.10
2018-11-25T01:01:10.765Z,8.10
2018-11-25T01:03:38.788Z,8.00
2018-11-25T01:06:06.820Z,8.00
2018-11-25T01:08:34.844Z,8.00
2018-11-25T01:11:02.868Z,8.00
2018-11-25T01:13:30.894Z,8.00
2018-11-25T01:15:58.914Z,8.00
2018-11-25T01:18:26.921Z,8.00
2018-11-25T01:20:54.932Z,8.00
2018-11-25T01:23:22.956Z,8.00
2018-11-25T01:25:50.974Z,8.00
2018-11-25T01:28:18.994Z,8.00
2018-11-25T01:30:46.997Z,8.00
2018-11-25T01:33:15.021Z,8.00
2018-11-25T01:35:43.069Z,8.00
2018-11-25T01:38:11.105Z,8.00
2018-11-25T01:40:39.148Z,8.00
2018-11-25T01:43:07.193Z,7.90
2018-11-25T01:45:35.224Z,7.90
2018-11-25T01:48:03.265Z,7.90
2018-11-25T01:50:31.305Z,7.90
2018-11-25T01:52:59.333Z,7.90
2018-11-25T01:55:27.368Z,7.90
2018-11-25T01:57:55.397Z,7.80
2018-11-25T02:00:23.409Z,7.80
2018-11-25T02:02:51.425Z,7.80
2018-11-25T02:05:19.450Z,7.80
2018-11-25T02:07:47.462Z,7.90
2018-11-25T02:10:17.199Z,7.90
2018-11-25T02:12:45.237Z,7.80
2018-11-25T02:15:14.085Z,7.80
2018-11-25T02:17:42.108Z,7.80
2018-11-25T02:20:18.353Z,7.70
2018-11-25T02:22:46.368Z,7.70
2018-11-25T02:25:14.388Z,7.70
2018-11-25T02:27:42.418Z,7.70
2018-11-25T02:30:11.809Z,7.70
2018-11-25T02:32:39.825Z,7.70
2018-11-25T02:35:09.931Z,7.70
2018-11-25T02:37:38.036Z,7.70
2018-11-25T02:40:08.976Z,7.70
2018-11-25T02:42:36.980Z,7.60
2018-11-25T02:45:06.878Z,7.60
2018-11-25T02:47:34.892Z,7.60
2018-11-25T02:50:02.916Z,7.60
2018-11-25T02:52:30.938Z,7.60
2018-11-25T02:54:58.965Z,7.60
2018-11-25T02:57:26.973Z,7.70
2018-11-25T02:59:55.009Z,7.70
2018-11-25T03:02:23.022Z,7.70
2018-11-25T03:04:51.041Z,7.70
2018-11-25T03:07:19.067Z,7.70
2018-11-25T03:09:47.116Z,7.70
2018-11-25T03:12:15.125Z,7.70
2018-11-25T03:14:43.147Z,7.70
2018-11-25T03:17:11.169Z,7.70
2018-11-25T03:19:39.193Z,7.70
2018-11-25T03:22:07.223Z,7.70
2018-11-25T03:24:35.236Z,7.70
2018-11-25T03:27:03.257Z,7.70
2018-11-25T03:29:31.277Z,7.70
2018-11-25T03:31:59.293Z,7.70
2018-11-25T03:34:27.317Z,7.70
2018-11-25T03:36:55.336Z,7.70
2018-11-25T03:39:23.354Z,7.70
2018-11-25T03:41:51.393Z,7.70
2018-11-25T03:44:19.400Z,7.70
2018-11-25T03:46:47.430Z,7.60
2018-11-25T03:49:15.440Z,7.70
2018-11-25T03:51:43.477Z,7.60
2018-11-25T03:54:11.488Z,7.60
2018-11-25T03:56:39.520Z,7.60
2018-11-25T03:59:07.611Z,7.40
2018-11-25T04:01:35.633Z,7.40
2018-11-25T04:04:03.656Z,7.50
2018-11-25T04:06:31.668Z,7.50
2018-11-25T04:08:59.685Z,7.50
2018-11-25T04:11:27.710Z,7.50
2018-11-25T04:13:55.765Z,7.30
2018-11-25T04:16:23.780Z,7.30
2018-11-25T04:18:51.789Z,7.30
2018-11-25T04:21:19.823Z,7.40
2018-11-25T04:23:47.828Z,7.30
2018-11-25T04:26:15.853Z,7.40
2018-11-25T04:28:43.861Z,7.40
2018-11-25T04:31:11.875Z,7.40
2018-11-25T04:33:39.901Z,7.50
2018-11-25T04:36:07.911Z,7.50
2018-11-25T04:38:35.925Z,7.50
2018-11-25T04:41:03.984Z,7.50
2018-11-25T04:43:32.084Z,7.50
2018-11-25T04:46:00.096Z,7.50
2018-11-25T04:48:28.121Z,7.50
2018-11-25T04:50:56.133Z,7.50
2018-11-25T04:53:24.161Z,7.50
2018-11-25T04:55:52.180Z,7.50
2018-11-25T04:58:20.217Z,7.60
2018-11-25T05:00:48.275Z,7.50
2018-11-25T05:03:16.321Z,7.50
2018-11-25T05:05:44.353Z,7.50
2018-11-25T05:08:12.397Z,7.50
2018-11-25T05:10:40.424Z,7.50
2018-11-25T05:13:08.465Z,7.50
2018-11-25T05:15:36.496Z,7.50
2018-11-25T05:18:04.552Z,7.50
2018-11-25T05:20:32.585Z,7.60
2018-11-25T05:23:00.633Z,7.60
2018-11-25T05:25:28.665Z,7.60
2018-11-25T05:27:56.709Z,7.60
2018-11-25T05:30:24.732Z,7.60
2018-11-25T05:32:52.773Z,7.60
2018-11-25T05:35:21.310Z,7.60
2018-11-25T05:37:49.376Z,7.60
2018-11-25T05:40:17.481Z,7.60
2018-11-25T05:42:45.552Z,7.70
2018-11-25T05:45:16.640Z,7.60
2018-11-25T05:47:44.761Z,7.60
2018-11-25T05:50:17.441Z,7.60
2018-11-25T05:52:45.505Z,7.50
2018-11-25T05:55:13.665Z,7.50
2018-11-25T05:57:41.993Z,7.50
2018-11-25T06:00:13.365Z,7.50
2018-11-25T06:02:41.392Z,7.50
2018-11-25T06:05:09.465Z,7.50
2018-11-25T06:07:37.501Z,7.50
2018-11-25T06:10:07.236Z,7.50
2018-11-25T06:12:35.280Z,7.50
2018-11-25T06:15:03.325Z,7.50
2018-11-25T06:17:31.356Z,7.50
2018-11-25T06:19:59.393Z,7.50
2018-11-25T06:22:27.424Z,7.50
2018-11-25T06:24:55.472Z,7.50
2018-11-25T06:27:23.559Z,7.50
2018-11-25T06:29:51.537Z,7.50
2018-11-25T06:32:19.580Z,7.50
2018-11-25T06:34:47.636Z,7.50
2018-11-25T06:37:15.660Z,7.50
2018-11-25T06:39:43.692Z,7.50
2018-11-25T06:42:11.740Z,7.50
2018-11-25T06:44:39.768Z,7.50
2018-11-25T06:47:07.826Z,7.50
2018-11-25T06:49:35.854Z,7.40
2018-11-25T06:52:03.893Z,7.40
2018-11-25T06:54:31.925Z,7.40
2018-11-25T06:56:59.966Z,7.40
2018-11-25T06:59:28.001Z,7.30
2018-11-25T07:01:56.045Z,7.30
2018-11-25T07:04:24.073Z,7.30
2018-11-25T07:06:52.112Z,7.30
2018-11-25T07:09:20.152Z,7.30
2018-11-25T07:11:48.201Z,7.30
2018-11-25T07:14:16.236Z,7.30
2018-11-25T07:16:44.365Z,7.20
2018-11-25T07:19:12.405Z,7.20
2018-11-25T07:21:40.437Z,7.20
2018-11-25T07:24:08.469Z,7.20
2018-11-25T07:26:36.505Z,7.20
2018-11-25T07:29:05.022Z,7.10
2018-11-25T07:31:33.066Z,7.10
2018-11-25T07:34:01.096Z,7.10
2018-11-25T07:36:29.123Z,7.10
2018-11-25T07:38:57.161Z,7.10
2018-11-25T07:41:25.193Z,7.10
2018-11-25T07:43:53.229Z,7.10
2018-11-25T07:46:21.280Z,7.10
2018-11-25T07:48:49.318Z,7.10
2018-11-25T07:51:17.363Z,7.10
2018-11-25T07:53:45.392Z,7.20
2018-11-25T07:56:13.440Z,7.30
2018-11-25T07:58:41.461Z,7.30
2018-11-25T08:01:09.483Z,7.30
2018-11-25T08:03:37.485Z,7.40
2018-11-25T08:06:05.502Z,7.40
2018-11-25T08:08:33.505Z,7.40
2018-11-25T08:11:01.521Z,7.50
2018-11-25T08:13:29.542Z,7.50
2018-11-25T08:15:57.548Z,7.50
2018-11-25T08:18:25.569Z,7.60
2018-11-25T08:20:53.580Z,7.70
2018-11-25T08:23:21.602Z,7.90
2018-11-25T08:25:49.612Z,8.00
2018-11-25T08:28:17.648Z,8.20
2018-11-25T08:30:45.657Z,8.40
2018-11-25T08:33:13.688Z,8.70
2018-11-25T08:35:41.713Z,8.90
2018-11-25T08:38:09.737Z,9.30
2018-11-25T08:40:37.753Z,9.80
2018-11-25T08:43:05.780Z,10.30
2018-11-25T08:45:33.797Z,11.00
2018-11-25T08:48:01.817Z,11.30
2018-11-25T08:50:29.833Z,11.90
2018-11-25T08:52:57.853Z,13.10
2018-11-25T08:55:26.316Z,14.50
2018-11-25T08:57:54.863Z,15.60
2018-11-25T09:00:23.857Z,16.40
2018-11-25T09:02:53.078Z,17.20
2018-11-25T09:05:21.116Z,18.30
2018-11-25T09:07:49.156Z,19.60
2018-11-25T09:10:20.196Z,20.70
2018-11-25T09:12:55.188Z,21.50
2018-11-25T09:15:19.640Z,22.20
2018-11-25T09:17:47.680Z,22.90
2018-11-25T09:20:22.561Z,23.70
2018-11-25T09:22:51.169Z,24.30
2018-11-25T09:25:20.573Z,25.00
2018-11-25T09:27:48.628Z,25.00
2018-11-25T09:30:18.789Z,25.00
2018-11-25T09:32:46.850Z,24.70
2018-11-25T09:35:14.902Z,24.20
2018-11-25T09:37:42.973Z,23.40
2018-11-25T09:40:13.081Z,22.50
2018-11-25T09:42:41.186Z,21.50
2018-11-25T09:45:10.797Z,20.60
2018-11-25T09:47:38.869Z,19.60
2018-11-25T09:50:09.502Z,18.90
2018-11-25T09:52:37.737Z,18.40
2018-11-25T09:55:07.945Z,18.10
2018-11-25T09:57:35.997Z,17.70
2018-11-25T10:00:06.669Z,17.30
2018-11-25T10:02:34.705Z,16.60
2018-11-25T10:05:02.756Z,16.00
2018-11-25T10:07:30.801Z,15.50
2018-11-25T10:09:58.849Z,14.90
2018-11-25T10:12:26.893Z,14.30
2018-11-25T10:14:54.945Z,13.90
2018-11-25T10:17:22.984Z,13.50
2018-11-25T10:19:51.029Z,13.10
2018-11-25T10:22:19.073Z,12.80
2018-11-25T10:24:47.161Z,12.50
2018-11-25T10:27:15.197Z,12.40
2018-11-25T10:29:43.237Z,12.10
2018-11-25T10:32:11.306Z,11.90
2018-11-25T10:34:39.341Z,11.80
2018-11-25T10:37:07.389Z,11.70
2018-11-25T10:39:35.429Z,11.60
2018-11-25T10:42:03.494Z,11.50
2018-11-25T10:44:31.529Z,11.50
2018-11-25T10:46:59.595Z,11.50
2018-11-25T10:49:27.632Z,11.50
2018-11-25T10:51:55.756Z,11.50
2018-11-25T10:54:23.801Z,11.50
2018-11-25T10:56:51.863Z,11.60
2018-11-25T10:59:19.896Z,11.70
2018-11-25T11:01:54.433Z,11.80
2018-11-25T11:04:27.924Z,11.80
2018-11-25T11:07:01.321Z,11.90
2018-11-25T11:09:29.372Z,11.90
2018-11-25T11:11:57.425Z,11.90
2018-11-25T11:14:25.465Z,11.90
2018-11-25T11:16:53.975Z,11.90
2018-11-25T11:19:21.556Z,11.90
2018-11-25T11:21:49.600Z,11.90
2018-11-25T11:24:17.636Z,11.80
2018-11-25T11:26:45.732Z,11.80
2018-11-25T11:29:13.769Z,11.80
2018-11-25T11:31:41.821Z,11.80
2018-11-25T11:34:09.857Z,11.70
2018-11-25T11:36:37.908Z,11.60
2018-11-25T11:39:08.896Z,11.60
2018-11-25T11:41:37.025Z,11.50
2018-11-25T11:44:05.076Z,11.40
2018-11-25T11:46:33.142Z,11.40
2018-11-25T11:49:01.169Z,11.30
2018-11-25T11:51:29.217Z,11.30
2018-11-25T11:53:57.248Z,11.30
2018-11-25T11:56:25.293Z,11.30
2018-11-25T11:58:53.316Z,11.10
2018-11-25T12:01:21.357Z,11.10
2018-11-25T12:03:49.385Z,11.00
2018-11-25T12:06:17.418Z,11.10
2018-11-25T12:08:45.440Z,11.20
2018-11-25T12:11:13.474Z,11.30
2018-11-25T12:13:41.497Z,11.40
2018-11-25T12:16:09.524Z,11.50
2018-11-25T12:18:37.556Z,11.60
2018-11-25T12:21:05.943Z,11.70
2018-11-25T12:23:33.981Z,12.00
2018-11-25T12:26:02.008Z,12.40
2018-11-25T12:28:30.149Z,13.00
2018-11-25T12:30:58.148Z,13.90
2018-11-25T12:33:26.176Z,14.70
2018-11-25T12:35:54.213Z,15.40
2018-11-25T12:38:22.244Z,16.00
2018-11-25T12:40:50.261Z,16.40
2018-11-25T12:43:18.292Z,16.60
2018-11-25T12:45:46.313Z,17.00
2018-11-25T12:48:14.357Z,17.00
2018-11-25T12:50:42.409Z,16.80
2018-11-25T12:53:10.453Z,16.80
2018-11-25T12:55:38.489Z,16.60
2018-11-25T12:58:06.516Z,16.30
2018-11-25T13:00:38.053Z,15.70
2018-11-25T13:03:07.665Z,15.10
2018-11-25T13:05:35.683Z,14.60
2018-11-25T13:08:03.703Z,14.20
2018-11-25T13:10:31.723Z,13.70
2018-11-25T13:12:59.766Z,13.30
2018-11-25T13:15:27.808Z,13.10
2018-11-25T13:17:55.828Z,12.90
2018-11-25T13:20:23.861Z,12.70
2018-11-25T13:22:51.877Z,12.50
2018-11-25T13:25:19.905Z,12.30
2018-11-25T13:27:47.937Z,12.20
2018-11-25T13:30:22.033Z,12.00
2018-11-25T13:32:51.255Z,11.90
2018-11-25T13:35:19.277Z,11.80
2018-11-25T13:37:47.288Z,11.80
2018-11-25T13:40:16.016Z,11.60
2018-11-25T13:42:44.045Z,11.50
2018-11-25T13:45:12.073Z,11.50
2018-11-25T13:47:40.104Z,11.40
2018-11-25T13:50:09.181Z,11.40
2018-11-25T13:52:37.209Z,11.40
2018-11-25T13:55:10.670Z,11.40
2018-11-25T13:57:38.709Z,11.30
2018-11-25T14:00:14.481Z,11.30
2018-11-25T14:02:42.508Z,11.20
2018-11-25T14:05:10.536Z,11.20
2018-11-25T14:07:38.553Z,11.20
2018-11-25T14:10:12.254Z,11.20
2018-11-25T14:12:40.277Z,11.20
2018-11-25T14:15:10.192Z,11.20
2018-11-25T14:17:38.237Z,11.20
2018-11-25T14:20:08.012Z,11.20
2018-11-25T14:22:36.038Z,11.10
2018-11-25T14:25:04.277Z,11.00
2018-11-25T14:27:32.304Z,10.90
2018-11-25T14:30:00.325Z,10.90
2018-11-25T14:32:28.341Z,10.70
2018-11-25T14:34:56.366Z,10.70
2018-11-25T14:37:24.378Z,10.60
2018-11-25T14:39:52.408Z,10.60
2018-11-25T14:42:20.426Z,10.50
2018-11-25T14:44:48.448Z,10.40
2018-11-25T14:47:16.473Z,10.40
2018-11-25T14:49:44.504Z,10.30
2018-11-25T14:52:12.536Z,10.20
2018-11-25T14:54:40.557Z,10.20
2018-11-25T14:57:08.597Z,10.10
2018-11-25T14:59:36.641Z,10.00
2018-11-25T15:02:04.945Z,10.00
2018-11-25T15:04:36.316Z,10.00
2018-11-25T15:07:01.064Z,9.90
2018-11-25T15:09:29.064Z,9.90
2018-11-25T15:11:57.233Z,9.80
2018-11-25T15:14:25.264Z,9.80
2018-11-25T15:16:53.309Z,9.70
2018-11-25T15:19:21.337Z,9.70
2018-11-25T15:21:49.445Z,9.70
2018-11-25T15:24:17.464Z,9.60
2018-11-25T15:26:45.509Z,9.60
2018-11-25T15:29:13.578Z,9.50
2018-11-25T15:31:41.677Z,9.50
2018-11-25T15:34:09.711Z,9.50
2018-11-25T15:36:37.862Z,9.50
2018-11-25T15:39:09.797Z,9.40
2018-11-25T15:41:37.846Z,9.40
2018-11-25T15:44:06.118Z,9.40
2018-11-25T15:46:34.181Z,9.30
2018-11-25T15:49:02.239Z,9.30
2018-11-25T15:51:30.271Z,9.30
2018-11-25T15:53:58.315Z,9.20
2018-11-25T15:56:26.356Z,9.20
2018-11-25T15:58:54.437Z,9.20
2018-11-25T16:01:22.581Z,9.10
2018-11-25T16:03:50.613Z,9.10
2018-11-25T16:06:22.010Z,9.00
2018-11-25T16:08:50.052Z,9.00
2018-11-25T16:11:18.088Z,8.90
2018-11-25T16:13:46.121Z,8.90
2018-11-25T16:16:14.168Z,8.90
2018-11-25T16:18:42.213Z,8.90
2018-11-25T16:21:10.237Z,8.90
2018-11-25T16:23:38.264Z,8.80
2018-11-25T16:26:14.968Z,8.80
2018-11-25T16:28:44.806Z,8.80
2018-11-25T16:31:12.849Z,8.70
2018-11-25T16:33:40.880Z,8.70
2018-11-25T16:36:08.921Z,8.60
2018-11-25T16:38:36.954Z,8.60
2018-11-25T16:41:05.740Z,8.60
2018-11-25T16:43:33.776Z,8.60
2018-11-25T16:46:01.830Z,8.60
2018-11-25T16:48:29.852Z,8.60
2018-11-25T16:50:57.920Z,8.60
2018-11-25T16:53:25.928Z,8.50
2018-11-25T16:55:53.956Z,8.50
2018-11-25T16:58:21.993Z,8.50
2018-11-25T17:00:50.013Z,8.50
2018-11-25T17:03:18.025Z,8.40
2018-11-25T17:05:47.803Z,8.40
2018-11-25T17:08:19.372Z,8.40
2018-11-25T17:10:47.389Z,8.40
2018-11-25T17:13:15.412Z,8.40
2018-11-25T17:15:43.428Z,8.30
2018-11-25T17:18:11.469Z,8.30
2018-11-25T17:20:39.495Z,8.30
2018-11-25T17:23:07.521Z,8.20
2018-11-25T17:25:35.534Z,8.20
2018-11-25T17:28:03.557Z,8.20
2018-11-25T17:30:31.629Z,8.20
2018-11-25T17:32:59.720Z,8.20
2018-11-25T17:35:29.120Z,8.20
2018-11-25T17:37:57.145Z,8.10
2018-11-25T17:40:25.161Z,8.10
2018-11-25T17:42:53.414Z,8.10
2018-11-25T17:45:21.470Z,8.00
2018-11-25T17:47:49.557Z,8.00
2018-11-25T17:50:23.877Z,7.90
2018-11-25T17:55:27.633Z,7.70
2018-11-25T17:57:55.759Z,7.70
2018-11-25T18:00:36.665Z,7.60
2018-11-25T18:03:10.366Z,7.60
2018-11-25T18:05:38.913Z,7.70
2018-11-25T18:08:06.661Z,7.80
2018-11-25T18:10:34.692Z,7.80
2018-11-25T18:13:02.738Z,7.90
2018-11-25T18:15:30.768Z,7.90
2018-11-25T18:18:02.522Z,7.90
2018-11-25T18:20:33.165Z,7.90
2018-11-25T18:23:01.208Z,8.00
2018-11-25T18:25:29.248Z,7.90
2018-11-25T18:28:00.548Z,7.90
2018-11-25T18:30:25.376Z,7.90
2018-11-25T18:32:53.416Z,8.00
2018-11-25T18:35:21.460Z,7.90
2018-11-25T18:37:49.509Z,8.00
2018-11-25T18:40:17.552Z,7.90
2018-11-25T18:42:45.597Z,8.00
2018-11-25T18:45:15.860Z,7.90
2018-11-25T18:47:45.577Z,7.90
2018-11-25T18:50:14.698Z,7.90
2018-11-25T18:52:44.096Z,7.90
2018-11-25T18:55:11.219Z,7.90
2018-11-25T18:57:39.261Z,7.90
2018-11-25T19:00:09.482Z,7.90
2018-11-25T19:02:42.847Z,7.90
2018-11-25T19:05:11.041Z,7.90
2018-11-25T19:07:39.076Z,7.90
2018-11-25T19:10:10.439Z,7.90
2018-11-25T19:12:44.054Z,7.90
2018-11-25T19:15:08.654Z,7.90
2018-11-25T19:17:36.693Z,7.90
2018-11-25T19:20:09.641Z,7.80
2018-11-25T19:22:37.681Z,7.80
2018-11-25T19:25:06.917Z,7.80
2018-11-25T19:27:35.037Z,7.90
2018-11-25T19:30:04.022Z,7.90
2018-11-25T19:32:32.209Z,7.90
2018-11-25T19:35:00.241Z,7.90
2018-11-25T19:37:28.285Z,7.80
2018-11-25T19:39:56.321Z,7.90
2018-11-25T19:42:24.365Z,7.90
2018-11-25T19:44:52.432Z,7.80
2018-11-25T19:47:20.473Z,7.80
2018-11-25T19:49:48.597Z,7.80
2018-11-25T19:52:16.628Z,7.80
2018-11-25T19:54:44.665Z,7.80
2018-11-25T19:57:12.721Z,7.80
2018-11-25T19:59:40.736Z,7.80
2018-11-25T20:04:43.309Z,7.80
2018-11-25T20:07:11.362Z,7.70
2018-11-25T20:09:39.370Z,7.70
2018-11-25T20:12:07.597Z,7.70
2018-11-25T20:14:35.618Z,7.70
2018-11-25T20:17:09.228Z,7.70
2018-11-25T20:19:38.807Z,7.60
2018-11-25T20:22:12.381Z,7.60
2018-11-25T20:24:40.405Z,7.60
2018-11-25T20:27:13.988Z,7.60
2018-11-25T20:29:42.013Z,7.50
2018-11-25T20:32:15.304Z,7.50
2018-11-25T20:34:43.325Z,7.50
2018-11-25T20:37:11.353Z,7.40
2018-11-25T20:39:39.365Z,7.40
2018-11-25T20:42:07.453Z,7.40
2018-11-25T20:44:35.405Z,7.30
2018-11-25T20:47:06.457Z,7.30
2018-11-25T20:49:35.013Z,7.30
2018-11-25T20:52:08.569Z,7.20
2018-11-25T20:54:36.584Z,7.30
2018-11-25T20:57:04.800Z,7.30
2018-11-25T20:59:32.813Z,7.40
2018-11-25T21:02:00.839Z,7.40
2018-11-25T21:04:28.854Z,7.50
2018-11-25T21:06:56.881Z,7.50
2018-11-25T21:09:24.901Z,7.50
2018-11-25T21:11:52.917Z,7.50
2018-11-25T21:14:20.934Z,7.50
2018-11-25T21:16:48.946Z,7.50
2018-11-25T21:19:16.965Z,7.50
2018-11-25T21:21:44.985Z,7.50
2018-11-25T21:24:13.010Z,7.50
2018-11-25T21:26:41.023Z,7.50
2018-11-25T21:29:09.041Z,7.50
2018-11-25T21:31:37.049Z,7.40
2018-11-25T21:34:05.077Z,7.40
2018-11-25T21:36:33.097Z,7.30
2018-11-25T21:39:01.125Z,7.30
2018-11-25T21:41:29.152Z,7.30
2018-11-25T21:43:57.181Z,7.30
2018-11-25T21:46:25.204Z,7.30
2018-11-25T21:48:53.265Z,7.30
2018-11-25T21:51:21.289Z,7.30
2018-11-25T21:53:49.305Z,7.30
2018-11-25T21:56:17.327Z,7.30
2018-11-25T21:58:45.414Z,7.20
2018-11-25T22:01:13.453Z,7.20
2018-11-25T22:06:15.980Z,7.20
2018-11-25T22:08:44.025Z,7.10
2018-11-25T22:11:12.058Z,7.10
2018-11-25T22:13:40.099Z,7.10
2018-11-25T22:16:08.156Z,7.10
2018-11-25T22:18:36.197Z,7.00
2018-11-25T22:21:04.473Z,7.00
2018-11-25T22:23:32.509Z,7.00
2018-11-25T22:26:00.558Z,7.00
2018-11-25T22:28:28.586Z,6.90
2018-11-25T22:30:56.630Z,6.90
2018-11-25T22:33:24.660Z,6.90
2018-11-25T22:35:52.705Z,6.80
2018-11-25T22:38:20.737Z,6.80
2018-11-25T22:40:48.784Z,6.80
2018-11-25T22:43:16.812Z,6.80
2018-11-25T22:45:44.858Z,6.80
2018-11-25T22:48:12.890Z,6.80
2018-11-25T22:50:40.929Z,6.80
2018-11-25T22:53:08.961Z,6.80
2018-11-25T22:55:36.994Z,6.80
2018-11-25T22:58:05.536Z,6.90
2018-11-25T23:00:35.012Z,6.90
2018-11-25T23:03:03.048Z,6.90
2018-11-25T23:05:42.659Z,6.90
2018-11-25T23:08:10.690Z,6.90
2018-11-25T23:10:38.731Z,6.90
2018-11-25T23:13:06.771Z,6.90
2018-11-25T23:15:34.813Z,6.80
2018-11-25T23:18:02.864Z,6.80
2018-11-25T23:20:30.904Z,6.80
2018-11-25T23:22:58.944Z,6.80
2018-11-25T23:25:27.001Z,6.80
2018-11-25T23:27:55.048Z,6.80
2018-11-25T23:30:23.094Z,6.70
2018-11-25T23:32:51.128Z,6.80
2018-11-25T23:35:20.528Z,6.80
2018-11-25T23:37:48.564Z,6.80
2018-11-25T23:40:16.608Z,6.90
2018-11-25T23:42:44.646Z,6.90
2018-11-25T23:45:14.773Z,7.00
2018-11-25T23:47:42.864Z,7.00
2018-11-25T23:50:11.905Z,7.00
2018-11-25T23:52:40.400Z,7.10
2018-11-25T23:55:09.810Z,7.10
2018-11-25T23:57:37.841Z,7.20
